Time;durP1;ratioP1;P1;durP2;ratioP2;P2;SDS_P1;SDS_P2;PMS_P1;PMS_P2;Temp;Humidity;BMP_temperature;BMP_pressure;BME280_temperature;BME280_humidity;BME280_pressure;Samples;Min_cycle;Max_cycle;Signal;HPM_P1;HPM_P2
2022/12/05 00:02:20;;;;;;;19.30;11.98;;;;;;;6.66;86.37;97779.84;5028622;28;20064;-88
2022/12/05 00:04:48;;;;;;;19.38;12.02;;;;;;;6.69;86.58;97791.69;5011927;28;20037;-88
2022/12/05 00:07:13;;;;;;;17.98;12.20;;;;;;;6.71;86.65;97792.31;4997854;28;20420;-88
2022/12/05 00:09:39;;;;;;;19.83;12.25;;;;;;;6.51;86.62;97786.03;5013254;28;20049;-89
2022/12/05 00:12:05;;;;;;;19.42;12.57;;;;;;;6.42;87.67;97793.16;5025591;28;20075;-88
2022/12/05 00:14:30;;;;;;;21.48;13.30;;;;;;;6.37;88.56;97790.28;5002400;28;20485;-88
2022/12/05 00:16:56;;;;;;;19.48;12.40;;;;;;;6.51;88.27;97799.88;5028155;28;20048;-88
2022/12/05 00:19:22;;;;;;;19.55;11.93;;;;;;;6.53;88.10;97797.88;5011713;28;20058;-88
2022/12/05 00:21:47;;;;;;;19.23;11.93;;;;;;;6.53;87.32;97810.13;5028987;28;20059;-88
2022/12/05 00:24:15;;;;;;;19.08;12.25;;;;;;;6.67;87.75;97815.34;5010092;28;20120;-89
2022/12/05 00:26:41;;;;;;;21.10;11.98;;;;;;;6.67;87.46;97807.50;5023970;28;20029;-88
2022/12/05 00:29:09;;;;;;;16.58;11.10;;;;;;;6.53;87.17;97800.50;5012346;28;20143;-88
2022/12/05 00:31:34;;;;;;;18.67;11.63;;;;;;;6.63;87.43;97801.03;5033167;28;20041;-88
2022/12/05 00:34:02;;;;;;;20.27;11.63;;;;;;;6.64;87.66;97807.84;5018724;28;20393;-88
2022/12/05 00:36:38;;;;;;;17.52;11.77;;;;;;;6.74;87.53;97822.41;5031608;28;20053;-88
2022/12/05 00:39:10;;;;;;;18.38;12.00;;;;;;;6.71;87.46;97824.38;5008617;28;20058;-88
2022/12/05 00:41:37;;;;;;;19.77;11.80;;;;;;;6.62;87.38;97807.25;5029041;28;20370;-88
2022/12/05 00:44:06;;;;;;;19.50;11.20;;;;;;;6.82;87.50;97828.31;5015545;28;20062;-88
2022/12/05 00:46:33;;;;;;;17.52;11.57;;;;;;;6.86;87.36;97831.38;4992548;28;20065;-88
2022/12/05 00:49:02;;;;;;;20.65;11.38;;;;;;;6.78;86.96;97834.09;5019211;28;20488;-88
2022/12/05 00:51:41;;;;;;;20.30;12.52;;;;;;;6.69;87.47;97831.59;5014776;28;20100;-88
2022/12/05 00:54:11;;;;;;;23.20;12.57;;;;;;;6.78;87.75;97839.28;5014386;28;20030;-88
2022/12/05 00:56:37;;;;;;;22.00;12.23;;;;;;;6.56;87.69;97821.00;5015342;28;20551;-88
2022/12/05 00:59:05;;;;;;;24.73;13.23;;;;;;;6.63;88.26;97841.94;5014506;28;20037;-88
2022/12/05 01:01:37;;;;;;;21.40;12.27;;;;;;;6.59;88.51;97840.66;5010981;28;20029;-88
2022/12/05 01:04:11;;;;;;;22.33;13.18;;;;;;;6.68;88.68;97845.59;5030603;28;20069;-87
2022/12/05 01:06:41;;;;;;;26.08;14.40;;;;;;;6.71;88.66;97844.44;5015879;28;20109;-87
2022/12/05 01:09:12;;;;;;;26.08;13.77;;;;;;;6.77;88.61;97848.09;5032303;28;20033;-88
2022/12/05 01:11:38;;;;;;;;;;;;;;;6.85;88.64;97845.41;4996706;28;20041;-88
2022/12/05 01:14:03;;;;;;;26.33;13.88;;;;;;;6.77;88.38;97837.69;5024638;28;19909;-88
2022/12/05 01:16:33;;;;;;;27.20;13.82;;;;;;;6.86;88.42;97862.69;5032457;28;20038;-88
2022/12/05 01:19:03;;;;;;;25.20;13.82;;;;;;;6.78;88.14;97857.53;5031916;28;20058;-88
2022/12/05 01:21:29;;;;;;;24.77;14.05;;;;;;;6.76;88.55;97847.31;5004960;28;20026;-87
2022/12/05 01:23:56;;;;;;;25.02;13.95;;;;;;;6.80;88.33;97853.78;4998650;28;20354;-88
2022/12/05 01:26:24;;;;;;;27.85;14.75;;;;;;;6.80;88.29;97847.75;5011058;28;20113;-87
2022/12/05 01:28:53;;;;;;;27.17;14.23;;;;;;;6.93;88.48;97866.97;5012030;28;20129;-88
2022/12/05 01:31:26;;;;;;;25.38;13.63;;;;;;;6.87;88.14;97869.50;5015948;28;20042;-87
2022/12/05 01:33:54;;;;;;;24.63;13.05;;;;;;;6.77;89.31;97869.75;5023952;28;20493;-87
2022/12/05 01:36:23;;;;;;;21.42;12.10;;;;;;;6.81;89.23;97867.63;4993151;28;20040;-88
2022/12/05 01:38:50;;;;;;;24.38;13.43;;;;;;;6.72;89.54;97859.09;4982968;28;20025;-88
2022/12/05 01:41:29;;;;;;;26.92;14.93;;;;;;;6.76;89.18;97877.78;5031429;28;20052;-88
2022/12/05 01:44:05;;;;;;;26.13;14.10;;;;;;;6.90;89.20;97882.19;5023881;28;20040;-88
2022/12/05 01:46:35;;;;;;;26.45;14.35;;;;;;;6.97;88.85;97883.88;5030291;28;20040;-88
2022/12/05 01:49:16;;;;;;;24.95;14.18;;;;;;;7.05;88.58;97888.19;5010335;28;20034;-88
2022/12/05 01:51:51;;;;;;;28.85;14.43;;;;;;;7.10;88.14;97880.63;5021216;28;20037;-88
2022/12/05 01:54:19;;;;;;;26.00;13.60;;;;;;;7.07;87.79;97873.16;5022130;28;20354;-88
2022/12/05 01:57:01;;;;;;;24.88;13.05;;;;;;;7.02;87.43;97878.13;5023134;28;20045;-88
2022/12/05 01:59:33;;;;;;;24.85;12.77;;;;;;;7.03;87.41;97894.59;5022608;28;20038;-88
2022/12/05 02:02:00;;;;;;;24.27;13.60;;;;;;;6.74;88.23;97890.19;5010271;28;20029;-89
2022/12/05 02:04:26;;;;;;;24.95;13.10;;;;;;;6.66;88.89;97904.13;5017285;28;20025;-88
2022/12/05 02:06:56;;;;;;;23.17;13.27;;;;;;;6.65;89.46;97907.69;5031275;28;20478;-89
2022/12/05 02:09:22;;;;;;;26.48;13.63;;;;;;;6.66;89.50;97917.97;4991602;28;20041;-84
2022/12/05 02:12:00;;;;;;;25.90;12.77;;;;;;;6.54;89.90;97898.53;5023303;28;20033;-84
2022/12/05 02:15:29;;;;;;;24.98;13.80;;;;;;;6.68;90.39;97915.97;5022241;28;20040;-85
2022/12/05 02:18:44;;;;;;;24.48;13.25;;;;;;;6.45;90.17;97920.44;4957004;28;20051;-85
2022/12/05 02:21:58;;;;;;;24.98;12.95;;;;;;;6.44;90.82;97913.63;4957561;28;20051;-85
2022/12/05 02:24:51;;;;;;;23.38;13.13;;;;;;;6.55;91.63;97912.38;4991396;28;20364;-85
2022/12/05 02:27:40;;;;;;;25.35;13.57;;;;;;;6.54;91.35;97924.59;5020949;28;20583;-85
2022/12/05 02:30:08;;;;;;;28.52;14.27;;;;;;;6.55;91.62;97921.00;5025040;28;20627;-85
2022/12/05 02:32:48;;;;;;;25.45;14.23;;;;;;;6.56;91.48;97927.81;5024747;28;20033;-84
2022/12/05 02:35:38;;;;;;;26.33;14.87;;;;;;;6.50;91.56;97930.34;4990905;28;20029;-89
2022/12/05 02:38:35;;;;;;;29.23;14.05;;;;;;;6.36;92.22;97929.34;5011151;28;20100;-89
2022/12/05 02:41:44;;;;;;;26.27;13.75;;;;;;;6.45;92.04;97943.88;5016261;28;20150;-89
2022/12/05 02:44:28;;;;;;;29.92;14.15;;;;;;;6.49;92.07;97949.56;4989198;28;20045;-90
2022/12/05 02:46:57;;;;;;;22.63;13.00;;;;;;;6.33;91.82;97934.88;5004143;28;20038;-89
2022/12/05 02:49:30;;;;;;;30.75;14.85;;;;;;;6.34;91.91;97944.31;5020626;28;20037;-91
2022/12/05 02:52:00;;;;;;;24.58;11.90;;;;;;;6.03;91.56;97942.59;5014168;28;20036;-91
2022/12/05 02:54:34;;;;;;;26.77;13.43;;;;;;;5.70;92.86;97926.38;4996914;28;20700;-92
2022/12/05 02:57:07;;;;;;;32.78;16.60;;;;;;;5.50;93.02;97927.78;5031062;28;20440;-91
2022/12/05 02:59:33;;;;;;;32.00;15.57;;;;;;;5.40;93.42;97942.78;4996840;28;20029;-91
2022/12/05 03:01:59;;;;;;;36.60;17.55;;;;;;;5.51;94.20;97956.22;5013989;28;20040;-91
2022/12/05 03:04:26;;;;;;;34.28;15.45;;;;;;;5.47;94.34;97957.56;5030685;28;20508;-93
2022/12/05 03:07:06;;;;;;;38.88;17.55;;;;;;;5.53;94.41;97985.50;5021708;28;20033;-92
2022/12/05 03:09:38;;;;;;;35.67;17.88;;;;;;;5.30;94.80;97945.63;4996633;28;20488;-92
2022/12/05 03:12:13;;;;;;;37.55;16.60;;;;;;;5.44;95.34;97970.91;5030806;28;20033;-91
2022/12/05 03:15:04;;;;;;;38.10;16.80;;;;;;;5.34;95.49;97980.72;5031602;28;20063;-93
2022/12/05 03:17:46;;;;;;;38.58;16.90;;;;;;;5.20;96.01;97979.63;5015355;28;20088;-92
2022/12/05 03:20:33;;;;;;;33.17;14.10;;;;;;;5.19;96.70;97988.41;5016099;28;20045;-92
2022/12/05 03:23:06;;;;;;;39.22;18.08;;;;;;;5.17;96.71;97989.56;5010267;28;20029;-84
2022/12/05 03:25:52;;;;;;;30.48;13.93;;;;;;;5.21;97.24;97985.63;5023149;28;20033;-84
2022/12/05 03:28:34;;;;;;;24.30;10.80;;;;;;;4.96;97.27;97970.09;5023544;28;20485;-85
2022/12/05 03:31:11;;;;;;;36.13;15.43;;;;;;;5.12;97.51;97992.66;5027181;28;20041;-84
2022/12/05 03:33:44;;;;;;;33.97;14.02;;;;;;;5.15;97.24;97989.69;5021698;28;20033;-84
2022/12/05 03:36:31;;;;;;;26.60;14.23;;;;;;;5.09;96.91;97998.97;5015405;28;20117;-84
2022/12/05 03:39:29;;;;;;;34.20;15.68;;;;;;;5.09;96.97;97987.78;5019634;28;20041;-84
2022/12/05 03:42:12;;;;;;;34.22;15.50;;;;;;;5.14;96.94;97975.09;5016479;28;20061;-90
2022/12/05 03:45:01;;;;;;;29.88;13.73;;;;;;;5.17;96.75;97971.34;5006462;28;20034;-91
2022/12/05 03:47:44;;;;;;;26.05;12.93;;;;;;;5.13;95.75;97962.25;5023341;28;20116;-89
2022/12/05 03:50:22;;;;;;;27.23;13.52;;;;;;;5.05;94.55;97943.13;5009752;28;20624;-90
2022/12/05 03:53:00;;;;;;;27.23;12.85;;;;;;;5.08;94.59;97963.56;5025683;28;20033;-89
2022/12/05 03:55:32;;;;;;;26.38;12.25;;;;;;;5.10;93.98;97969.44;5001784;28;20440;-91
2022/12/05 03:58:06;;;;;;;24.90;13.52;;;;;;;5.12;94.19;97981.44;5002360;28;20109;-91
2022/12/05 04:00:38;;;;;;;21.02;11.23;;;;;;;5.16;94.58;97991.34;5007485;28;20063;-91
2022/12/05 04:03:18;;;;;;;26.83;12.85;;;;;;;5.08;93.57;97997.38;5012900;28;20037;-91
2022/12/05 04:05:53;;;;;;;20.17;11.40;;;;;;;5.14;93.27;97989.88;5019120;28;20120;-85
2022/12/05 04:08:28;;;;;;;24.13;13.15;;;;;;;5.09;92.82;97998.97;5022911;28;20064;-85
2022/12/05 04:11:02;;;;;;;21.73;12.05;;;;;;;4.95;92.96;97991.06;5023826;28;20116;-85
2022/12/05 04:13:51;;;;;;;21.00;10.57;;;;;;;4.97;92.82;97989.09;5024663;28;20104;-85
2022/12/05 04:21:36;;;;;;;20.13;11.05;;;;;;;5.05;92.24;98028.09;5025426;28;20112;-85
2022/12/05 04:22:20;;;;;;;22.90;13.38;;;;;;;4.78;92.14;98005.88;5026618;28;20044;-86
2022/12/05 04:28:24;;;;;;;22.17;12.82;;;;;;;4.85;92.27;98040.63;5027074;28;20373;-85
2022/12/05 04:31:09;;;;;;;18.40;10.68;;;;;;;4.76;92.50;98023.44;5007036;28;20037;-85
2022/12/05 04:33:49;;;;;;;24.10;13.07;;;;;;;4.86;92.63;98044.88;5024436;28;20041;-85
2022/12/05 04:36:43;;;;;;;27.30;13.27;;;;;;;4.94;92.78;98057.84;5019957;28;20038;-85
2022/12/05 04:39:36;;;;;;;22.08;12.13;;;;;;;4.94;92.71;98060.44;5005501;28;20042;-86
2022/12/05 04:42:14;;;;;;;20.83;12.95;;;;;;;4.90;92.51;98045.34;5009040;28;20037;-86
2022/12/05 04:44:51;;;;;;;24.58;13.00;;;;;;;4.80;92.20;98030.75;5013071;28;20469;-86
2022/12/05 04:47:23;;;;;;;20.85;11.10;;;;;;;4.83;92.52;98033.00;5024706;28;20040;-86
2022/12/05 04:49:53;;;;;;;25.35;12.48;;;;;;;4.82;92.61;98043.56;5025607;28;20030;-84
2022/12/05 04:52:20;;;;;;;22.13;11.70;;;;;;;4.78;92.83;98055.25;5008494;28;20029;-86
2022/12/05 04:55:01;;;;;;;21.35;11.82;;;;;;;4.76;91.77;98049.41;5008962;28;20078;-85
2022/12/05 04:57:41;;;;;;;21.17;11.23;;;;;;;4.84;92.01;98062.38;5021966;28;20497;-85
2022/12/05 05:00:07;;;;;;;16.67;9.55;;;;;;;4.70;91.25;98052.66;5021565;28;20121;-86
2022/12/05 05:03:06;;;;;;;19.60;12.00;;;;;;;4.80;91.17;98066.31;5023674;28;20068;-86
2022/12/05 05:05:36;;;;;;;18.58;10.18;;;;;;;4.82;91.43;98061.75;5023331;28;20420;-85
2022/12/05 05:08:04;;;;;;;15.80;9.77;;;;;;;4.81;90.87;98068.75;5025010;28;20030;-86
2022/12/05 05:10:43;;;;;;;15.23;9.88;;;;;;;4.66;90.91;98048.75;5024428;28;20064;-85
2022/12/05 05:13:09;;;;;;;18.98;9.68;;;;;;;4.68;90.42;98058.03;5023638;28;20485;-85
2022/12/05 05:15:34;;;;;;;15.75;9.52;;;;;;;4.66;90.58;98069.53;5027783;28;20063;-86
2022/12/05 05:18:02;;;;;;;15.88;8.73;;;;;;;4.55;89.89;98060.28;5025991;28;20034;-86
2022/12/05 05:20:28;;;;;;;13.13;7.78;;;;;;;4.60;89.65;98070.19;5024090;28;20556;-85
2022/12/05 05:22:56;;;;;;;12.25;7.32;;;;;;;4.67;88.67;98091.94;5025677;28;20053;-86
2022/12/05 05:25:25;;;;;;;12.80;8.07;;;;;;;4.61;89.13;98088.22;5025987;28;20496;-85
2022/12/05 05:27:54;;;;;;;12.68;7.55;;;;;;;4.63;89.08;98081.09;5025705;28;20108;-85
2022/12/05 05:30:21;;;;;;;11.05;7.20;;;;;;;4.65;88.94;98081.72;5024507;28;20528;-85
2022/12/05 05:32:47;;;;;;;10.23;6.45;;;;;;;4.50;88.93;98071.19;5003155;28;20066;-85
2022/12/05 05:35:14;;;;;;;12.52;7.22;;;;;;;4.67;88.78;98091.94;5020351;28;20034;-85
2022/12/05 05:37:41;;;;;;;12.40;6.63;;;;;;;4.68;88.77;98097.00;5021542;28;20460;-85
2022/12/05 05:40:10;;;;;;;12.35;7.50;;;;;;;4.53;88.45;98073.44;5021340;28;20030;-85
2022/12/05 05:42:41;;;;;;;12.82;6.57;;;;;;;4.57;88.35;98092.13;5022840;28;20974;-85
2022/12/05 05:45:07;;;;;;;11.93;7.13;;;;;;;4.52;88.67;98084.81;5019991;28;20037;-85
2022/12/05 05:51:54;;;;;;;10.80;6.20;;;;;;;4.56;89.08;98106.91;4954436;28;20070;-92
2022/12/05 05:54:20;;;;;;;11.80;7.53;;;;;;;4.31;88.15;98071.47;4938450;29;20075;-93
2022/12/05 05:56:46;;;;;;;10.52;6.38;;;;;;;4.42;88.22;98097.13;5013106;28;20393;-92
2022/12/05 05:59:12;;;;;;;11.75;6.45;;;;;;;4.25;88.34;98083.28;5013700;28;20065;-85
2022/12/05 06:01:37;;;;;;;7.40;4.25;;;;;;;4.28;88.20;98102.94;5023096;28;20472;-86
2022/12/05 06:04:03;;;;;;;11.10;6.35;;;;;;;4.26;88.80;98097.94;5030851;28;20112;-93
2022/12/05 06:06:31;;;;;;;8.43;5.38;;;;;;;4.37;89.03;98101.97;5014684;28;20200;-93
2022/12/05 06:08:59;;;;;;;9.45;5.95;;;;;;;4.33;89.13;98100.69;5003676;28;20594;-92
2022/12/05 06:11:27;;;;;;;11.48;5.97;;;;;;;4.35;87.92;98101.34;4995173;28;20037;-93
2022/12/05 06:13:54;;;;;;;7.10;5.03;;;;;;;4.42;87.24;98104.09;5013077;28;20030;-93
2022/12/05 06:16:20;;;;;;;13.48;6.15;;;;;;;4.47;88.17;98113.03;4993270;28;20091;-94
2022/12/05 06:18:45;;;;;;;8.68;5.45;;;;;;;4.39;87.80;98110.44;5033227;28;20045;-93
2022/12/05 06:21:11;;;;;;;10.30;4.88;;;;;;;4.41;87.38;98118.06;5015871;28;20523;-93
2022/12/05 06:23:38;;;;;;;10.15;6.50;;;;;;;4.48;87.67;98122.44;5014575;28;20116;-94
2022/12/05 06:26:08;;;;;;;9.38;6.50;;;;;;;4.46;87.03;98121.00;5029366;28;20033;-92
2022/12/05 06:28:34;;;;;;;8.48;5.70;;;;;;;4.37;87.36;98121.94;5005800;28;20085;-93
2022/12/05 06:31:07;;;;;;;5.13;4.55;;;;;;;4.39;86.56;98139.00;5013194;28;20050;-95
2022/12/05 06:33:33;;;;;;;9.85;5.75;;;;;;;4.50;87.72;98135.31;4995445;28;20034;-92
2022/12/05 06:36:08;;;;;;;9.18;5.90;;;;;;;4.42;86.92;98130.88;5010781;28;20033;-93
2022/12/05 06:38:34;;;;;;;11.48;7.03;;;;;;;4.43;86.49;98131.69;4995417;28;20057;-94
2022/12/05 06:41:05;;;;;;;10.88;5.97;;;;;;;4.40;86.27;98143.22;4978426;28;20072;-92
2022/12/05 06:43:31;;;;;;;11.38;6.88;;;;;;;4.35;86.55;98140.28;4995663;28;20435;-92
2022/12/05 06:45:56;;;;;;;9.50;5.97;;;;;;;4.41;87.01;98139.66;5010365;28;20129;-93
2022/12/05 06:48:22;;;;;;;9.20;6.55;;;;;;;4.38;87.16;98145.19;5012095;28;20419;-93
2022/12/05 06:50:51;;;;;;;9.55;6.60;;;;;;;4.45;87.42;98146.16;5012527;28;20041;-91
2022/12/05 06:53:19;;;;;;;12.65;7.55;;;;;;;4.42;86.33;98145.66;4995271;28;20065;-93
2022/12/05 06:56:02;;;;;;;11.07;5.28;;;;;;;4.30;86.48;98147.75;4995970;28;20177;-93
2022/12/05 06:58:28;;;;;;;14.05;8.35;;;;;;;4.31;86.88;98159.75;5024160;28;20042;-93
2022/12/05 07:03:39;;;;;;;15.65;9.18;;;;;;;4.30;86.86;98158.94;5017994;28;20036;-94
2022/12/05 07:06:07;;;;;;;16.63;8.95;;;;;;;4.11;86.70;98158.41;5009154;28;20026;-93
2022/12/05 07:08:33;;;;;;;16.70;9.63;;;;;;;4.01;87.25;98174.88;4978892;28;20362;-93
2022/12/05 07:10:59;;;;;;;14.55;8.38;;;;;;;4.01;88.35;98163.69;5012643;28;20461;-85
2022/12/05 07:13:24;;;;;;;17.15;8.90;;;;;;;4.06;87.45;98178.81;5027087;28;20038;-86
2022/12/05 07:15:51;;;;;;;17.38;8.63;;;;;;;4.06;87.54;98181.41;5024322;28;20092;-86
2022/12/05 07:18:19;;;;;;;19.88;9.23;;;;;;;3.97;87.46;98163.22;5024845;28;20040;-86
2022/12/05 07:20:54;;;;;;;17.15;8.65;;;;;;;3.99;87.16;98173.44;5007981;28;20029;-94
2022/12/05 07:23:19;;;;;;;11.95;7.35;;;;;;;3.95;86.97;98167.72;4990456;28;20065;-85
2022/12/05 07:25:45;;;;;;;18.75;8.65;;;;;;;3.99;87.06;98165.66;5022198;28;20069;-85
2022/12/05 07:28:12;;;;;;;19.02;8.98;;;;;;;4.01;87.01;98174.88;5018913;28;20114;-85
2022/12/05 07:30:38;;;;;;;16.75;8.88;;;;;;;4.00;87.00;98165.47;5018609;28;20061;-85
2022/12/05 07:33:04;;;;;;;16.15;8.40;;;;;;;4.11;86.50;98190.34;5018660;28;20037;-85
2022/12/05 07:35:29;;;;;;;16.15;7.90;;;;;;;4.17;87.94;98187.13;5018262;28;20102;-85
2022/12/05 07:37:55;;;;;;;20.05;9.45;;;;;;;4.07;86.55;98193.41;5020708;28;20060;-86
2022/12/05 07:40:20;;;;;;;19.92;7.72;;;;;;;4.11;87.05;98186.94;5017777;28;20063;-85
2022/12/05 07:42:52;;;;;;;19.15;8.13;;;;;;;4.22;87.17;98194.47;5009287;28;20126;-86
2022/12/05 07:45:21;;;;;;;15.13;7.90;;;;;;;4.21;87.76;98180.66;5018664;28;20586;-92
2022/12/05 07:47:47;;;;;;;16.80;7.57;;;;;;;4.08;86.37;98184.66;4991635;28;20083;-92
2022/12/05 07:50:13;;;;;;;16.85;7.85;;;;;;;4.15;87.41;98203.84;5018022;28;20491;-91
2022/12/05 07:52:56;;;;;;;21.25;8.88;;;;;;;4.13;86.81;98203.16;5034071;28;20073;-91
2022/12/05 07:55:22;;;;;;;19.98;9.85;;;;;;;4.16;87.73;98205.47;5004639;28;20037;-92
2022/12/05 07:57:47;;;;;;;22.13;9.18;;;;;;;4.17;87.19;98217.47;5034299;28;20041;-91
2022/12/05 08:00:14;;;;;;;21.58;9.30;;;;;;;4.15;87.35;98215.03;5008266;28;20040;-91
2022/12/05 08:02:39;;;;;;;21.35;10.38;;;;;;;4.19;87.11;98223.31;4997483;28;20079;-91
2022/12/05 08:05:05;;;;;;;18.95;9.38;;;;;;;4.27;86.20;98210.38;4980052;28;20030;-93
2022/12/05 08:07:31;;;;;;;17.40;7.97;;;;;;;4.32;85.50;98223.72;4996246;28;20057;-91
2022/12/05 08:09:56;;;;;;;19.45;8.00;;;;;;;4.35;85.30;98223.38;5023911;28;20033;-91
2022/12/05 08:12:23;;;;;;;20.33;9.23;;;;;;;4.30;84.30;98233.41;5014288;28;20069;-91
2022/12/05 08:14:49;;;;;;;19.13;8.65;;;;;;;4.31;84.02;98229.84;5017487;28;20069;-93
2022/12/05 08:17:14;;;;;;;17.40;8.65;;;;;;;4.30;84.10;98228.22;5026564;28;20042;-89
2022/12/05 08:19:40;;;;;;;16.95;8.13;;;;;;;4.45;83.70;98229.28;4998835;28;20033;-90
2022/12/05 08:22:06;;;;;;;20.35;9.02;;;;;;;4.48;83.05;98207.34;5027764;28;20385;-89
2022/12/05 08:24:31;;;;;;;21.40;9.55;;;;;;;4.75;84.29;98234.88;5011579;28;20041;-90
2022/12/05 08:26:57;;;;;;;22.20;10.00;;;;;;;4.81;81.62;98223.84;5031276;28;20037;-91
2022/12/05 08:29:22;;;;;;;18.48;8.82;;;;;;;4.70;81.00;98226.75;5032439;28;20060;-91
2022/12/05 08:31:50;;;;;;;19.52;9.13;;;;;;;4.71;82.25;98223.97;5010221;28;20136;-91
2022/12/05 08:34:18;;;;;;;17.42;9.00;;;;;;;4.88;82.36;98240.41;5006952;28;20080;-89
2022/12/05 08:36:46;;;;;;;17.45;8.52;;;;;;;4.98;82.23;98243.69;5002729;28;20032;-89
2022/12/05 08:39:15;;;;;;;20.83;9.57;;;;;;;4.93;81.87;98240.75;5026033;28;20462;-89
2022/12/05 08:41:43;;;;;;;21.05;9.45;;;;;;;4.89;80.67;98252.44;5010995;28;20061;-90
2022/12/05 08:44:14;;;;;;;20.95;9.15;;;;;;;4.77;81.51;98253.72;5007878;28;20033;-91
2022/12/05 08:46:42;;;;;;;14.13;7.40;;;;;;;4.67;81.29;98258.22;5003269;28;20041;-91
2022/12/05 08:49:11;;;;;;;18.13;9.27;;;;;;;4.64;81.56;98253.34;4997085;28;20120;-90
2022/12/05 08:51:36;;;;;;;16.27;8.07;;;;;;;4.69;81.64;98266.69;5032222;28;20084;-89
2022/12/05 08:54:04;;;;;;;21.58;9.73;;;;;;;4.75;81.95;98268.66;5016494;28;20041;-89
2022/12/05 08:56:31;;;;;;;18.30;8.95;;;;;;;4.87;82.21;98285.56;5015533;28;20497;-90
2022/12/05 08:58:58;;;;;;;20.58;9.45;;;;;;;4.93;81.48;98279.75;5019005;28;20029;-90
2022/12/05 09:01:29;;;;;;;16.85;8.85;;;;;;;4.88;80.45;98276.81;5017591;28;20042;-90
2022/12/05 09:03:55;;;;;;;22.45;10.05;;;;;;;4.76;80.22;98265.88;5011414;28;20030;-91
2022/12/05 09:06:24;;;;;;;18.58;10.02;;;;;;;4.81;81.97;98283.63;4997911;28;20037;-89
2022/12/05 09:08:57;;;;;;;20.90;9.40;;;;;;;4.87;81.99;98290.78;5023992;28;20025;-90
2022/12/05 09:11:31;;;;;;;21.15;9.55;;;;;;;4.81;80.67;98281.00;5009408;28;20046;-91
2022/12/05 09:13:59;;;;;;;19.65;9.57;;;;;;;4.95;81.90;98298.59;5011222;28;20026;-91
2022/12/05 09:16:33;;;;;;;19.90;9.48;;;;;;;4.95;81.12;98295.16;5032359;28;20044;-91
2022/12/05 09:18:59;;;;;;;18.00;8.55;;;;;;;4.97;81.11;98295.81;5015570;28;20033;-89
2022/12/05 09:21:28;;;;;;;19.60;10.10;;;;;;;5.08;82.15;98298.94;5024461;28;20037;-88
2022/12/05 09:23:56;;;;;;;20.00;8.85;;;;;;;5.00;80.76;98285.94;5007710;28;20036;-91
2022/12/05 09:26:25;;;;;;;16.83;8.20;;;;;;;5.05;80.54;98298.44;4996447;28;20026;-91
2022/12/05 09:28:52;;;;;;;20.20;8.70;;;;;;;4.92;79.50;98313.66;5023497;28;20496;-91
2022/12/05 09:31:22;;;;;;;22.60;9.63;;;;;;;5.01;80.75;98321.34;5023169;28;20037;-92
2022/12/05 09:33:50;;;;;;;21.75;10.55;;;;;;;4.99;82.21;98304.28;5021779;28;20069;-91
2022/12/05 09:36:27;;;;;;;18.38;8.35;;;;;;;5.08;79.89;98309.34;5013299;28;20156;-90
2022/12/05 09:38:54;;;;;;;21.83;9.77;;;;;;;5.07;79.91;98312.09;5011405;28;20757;-92
2022/12/05 09:45:00;;;;;;;25.00;10.52;;;;;;;5.25;82.64;98304.16;5020880;28;20068;-91
2022/12/05 09:47:32;;;;;;;19.40;9.13;;;;;;;5.29;81.59;98308.09;5021192;28;20116;-91
2022/12/05 09:50:48;;;;;;;21.13;9.27;;;;;;;5.31;81.56;98314.75;5023540;28;20125;-91
2022/12/05 09:53:37;;;;;;;16.75;8.70;;;;;;;5.19;81.25;98294.41;4993216;28;20512;-90
2022/12/05 09:56:28;;;;;;;19.40;9.52;;;;;;;5.24;80.58;98305.97;5014666;28;20037;-89
2022/12/05 09:58:56;;;;;;;;;;;;;;;5.31;81.64;98324.34;5018059;28;20026;-89
2022/12/05 10:01:34;;;;;;;17.17;8.05;;;;;;;5.32;80.09;98315.56;5021876;28;20017;-91
2022/12/05 10:04:32;;;;;;;17.08;8.63;;;;;;;5.38;80.93;98320.09;5030688;28;20365;-90
2022/12/05 10:07:09;;;;;;;20.90;9.20;;;;;;;5.40;80.57;98315.59;5030404;28;20706;-89
2022/12/05 10:09:58;;;;;;;20.80;9.05;;;;;;;5.36;80.52;98311.66;5021172;28;20396;-88
2022/12/05 10:12:59;;;;;;;18.75;9.05;;;;;;;5.39;80.06;98316.53;5009695;28;20053;-91
2022/12/05 10:15:39;;;;;;;17.83;8.48;;;;;;;5.45;80.80;98315.88;5027810;28;20029;-90
2022/12/05 10:18:22;;;;;;;19.95;8.60;;;;;;;5.38;79.37;98309.69;5013713;28;20041;-90
2022/12/05 10:21:19;;;;;;;21.48;9.13;;;;;;;5.51;81.46;98311.81;5029780;28;20029;-89
2022/12/05 10:24:00;;;;;;;17.17;8.90;;;;;;;5.50;79.52;98316.22;5023402;28;20050;-90
2022/12/05 10:26:35;;;;;;;19.10;9.05;;;;;;;5.43;78.90;98302.25;5027763;28;20087;-90
2022/12/05 10:29:34;;;;;;;16.48;8.85;;;;;;;5.29;78.69;98323.69;5025539;28;20140;-91
2022/12/05 10:32:57;;;;;;;19.90;8.75;;;;;;;5.19;79.17;98323.81;5007608;28;20234;-90
2022/12/05 10:35:30;;;;;;;18.83;9.10;;;;;;;5.34;82.30;98309.22;4952251;28;20042;-89
2022/12/05 10:38:13;;;;;;;18.25;8.77;;;;;;;5.47;81.37;98308.75;5023462;28;20037;-89
2022/12/05 10:40:46;;;;;;;17.02;9.10;;;;;;;5.50;80.32;98303.22;5017613;28;20509;-89
2022/12/05 10:43:23;;;;;;;18.95;8.57;;;;;;;5.60;79.61;98318.66;5010238;28;20072;-90
2022/12/05 10:45:49;;;;;;;17.10;8.77;;;;;;;5.59;79.13;98306.66;5029884;28;20037;-89
2022/12/05 10:48:19;;;;;;;17.80;8.93;;;;;;;5.64;80.03;98307.78;5012417;28;20068;-89
2022/12/05 10:50:49;;;;;;;17.80;9.02;;;;;;;5.75;80.57;98304.00;5009637;28;20922;-89
2022/12/05 10:53:23;;;;;;;17.47;8.93;;;;;;;5.77;79.28;98309.06;4994029;28;20026;-89
2022/12/05 10:55:54;;;;;;;19.50;9.40;;;;;;;5.72;80.41;98311.34;5025973;28;20296;-90
2022/12/05 10:58:28;;;;;;;17.33;9.02;;;;;;;5.68;80.05;98304.84;5029253;28;20037;-89
2022/12/05 11:00:58;;;;;;;21.30;9.85;;;;;;;5.70;80.88;98308.09;5029643;28;20045;-90
2022/12/05 11:03:27;;;;;;;17.77;9.38;;;;;;;5.66;80.83;98310.22;5023490;28;20060;-89
2022/12/05 11:05:58;;;;;;;19.27;9.05;;;;;;;5.69;82.29;98306.47;4988911;28;20052;-89
2022/12/05 11:08:28;;;;;;;21.33;9.90;;;;;;;5.80;81.50;98301.75;5009706;28;20041;-89
2022/12/05 11:11:06;;;;;;;16.33;8.20;;;;;;;5.90;81.42;98285.97;5004409;28;20087;-89
2022/12/05 11:13:33;;;;;;;19.77;9.35;;;;;;;5.91;79.47;98305.84;5008101;28;20034;-89
2022/12/05 11:16:00;;;;;;;17.02;8.80;;;;;;;5.91;80.94;98305.84;5025018;28;20041;-89
2022/12/05 11:18:33;;;;;;;18.98;10.27;;;;;;;5.89;81.09;98303.38;5021778;28;20488;-89
2022/12/05 11:21:13;;;;;;;17.27;9.25;;;;;;;5.81;80.66;98300.75;5024018;28;20399;-90
2022/12/05 11:23:39;;;;;;;18.47;9.97;;;;;;;5.77;82.03;98309.06;5020313;28;20033;-90
2022/12/05 11:26:36;;;;;;;20.10;10.25;;;;;;;5.80;82.74;98303.53;5029948;28;20041;-89
2022/12/05 11:29:28;;;;;;;19.20;9.07;;;;;;;5.77;80.73;98301.28;5032035;28;20702;-90
2022/12/05 11:31:54;;;;;;;20.42;9.63;;;;;;;5.66;82.46;98306.81;5028532;28;20065;-89
2022/12/05 11:34:28;;;;;;;21.00;10.00;;;;;;;5.66;83.37;98296.41;5015542;28;20132;-90
2022/12/05 11:37:12;;;;;;;16.73;8.57;;;;;;;5.61;83.09;98295.09;5033394;28;20108;-89
2022/12/05 11:39:38;;;;;;;19.90;8.90;;;;;;;5.64;83.22;98289.56;5003114;28;20037;-89
2022/12/05 11:42:13;;;;;;;17.15;9.05;;;;;;;5.84;83.57;98297.03;4999114;28;20030;-90
2022/12/05 11:44:56;;;;;;;20.52;9.85;;;;;;;5.83;83.25;98291.00;5013344;28;20030;-89
2022/12/05 11:47:32;;;;;;;20.25;9.27;;;;;;;6.01;83.18;98285.66;5029051;28;20044;-89
2022/12/05 11:50:39;;;;;;;18.98;8.43;;;;;;;6.04;82.25;98293.13;5028810;28;20030;-91
2022/12/05 11:53:39;;;;;;;16.67;8.75;;;;;;;5.80;nan;98282.72;4990945;28;20045;-91
2022/12/05 11:56:27;;;;;;;20.08;9.40;;;;;;;5.75;83.11;98284.97;5033750;28;20059;-90
2022/12/05 11:59:12;;;;;;;18.52;9.55;;;;;;;5.71;84.03;98284.53;5034100;28;20079;-90
2022/12/05 12:02:00;;;;;;;21.23;9.88;;;;;;;5.70;85.26;98284.66;5012252;28;20061;-91
2022/12/05 12:05:00;;;;;;;20.27;9.65;;;;;;;5.70;85.11;98285.50;4995717;28;20041;-91
2022/12/05 12:08:20;;;;;;;20.55;9.48;;;;;;;5.84;85.61;98286.63;5024776;28;20045;-91
2022/12/05 12:11:00;;;;;;;21.05;8.95;;;;;;;5.93;85.60;98284.84;5015223;28;20043;-90
2022/12/05 12:13:52;;;;;;;18.98;9.93;;;;;;;5.99;85.49;98284.16;5022944;28;20596;-89
2022/12/05 12:16:36;;;;;;;20.17;9.60;;;;;;;6.02;85.30;98271.66;5028083;28;20528;-90
2022/12/05 12:19:17;;;;;;;18.38;9.75;;;;;;;5.97;83.94;98267.91;5012499;28;20504;-89
2022/12/05 12:22:10;;;;;;;18.30;9.77;;;;;;;6.08;84.47;98265.78;5014911;28;20065;-89